Time;durP1;ratioP1;P1;durP2;ratioP2;P2;SDS_P1;SDS_P2;PMS_P1;PMS_P2;Temp;Humidity;BMP_temperature;BMP_pressure;BME280_temperature;BME280_humidity;BME280_pressure;Samples;Min_cycle;Max_cycle;Signal;HPM_P1;HPM_P2
2022/10/06 00:01:18;;;;;;;8.68;4.70;;;;;;;6.62;87.95;102413.75;1969373;72;20985;-64
2022/10/06 00:03:47;;;;;;;12.95;6.42;;;;;;;6.59;88.17;102408.53;1980616;72;21536;-64
2022/10/06 00:06:17;;;;;;;13.83;5.75;;;;;;;6.53;88.27;102401.09;1974132;72;21127;-64
2022/10/06 00:08:46;;;;;;;12.40;5.78;;;;;;;6.49;88.55;102413.72;1971445;72;21592;-64
2022/10/06 00:11:16;;;;;;;14.28;5.83;;;;;;;6.46;88.71;102413.70;1959856;72;21679;-63
2022/10/06 00:13:45;;;;;;;11.28;5.05;;;;;;;6.44;88.75;102408.89;1961050;72;21505;-62
2022/10/06 00:16:17;;;;;;;15.15;5.83;;;;;;;6.41;88.81;102407.56;1965249;72;21637;-63
2022/10/06 00:18:46;;;;;;;12.85;5.90;;;;;;;6.36;88.86;102407.96;1960294;72;21021;-63
2022/10/06 00:21:15;;;;;;;8.35;4.90;;;;;;;6.34;88.92;102409.70;1967641;72;21078;-65
2022/10/06 00:23:44;;;;;;;10.63;5.62;;;;;;;6.31;88.98;102412.32;1971908;72;21513;-65
2022/10/06 00:26:15;;;;;;;14.00;6.97;;;;;;;6.28;89.04;102408.37;1967220;72;21518;-66
2022/10/06 00:28:46;;;;;;;15.28;8.18;;;;;;;6.27;89.12;102410.53;1967158;72;21065;-65
2022/10/06 00:31:15;;;;;;;11.45;6.42;;;;;;;6.25;89.17;102403.11;1967933;72;21214;-66
2022/10/06 00:33:44;;;;;;;19.87;8.65;;;;;;;6.24;89.17;102409.22;1969008;72;21113;-65
2022/10/06 00:36:14;;;;;;;15.48;8.18;;;;;;;6.22;89.30;102408.34;1965920;72;20999;-61
2022/10/06 00:38:42;;;;;;;16.97;8.60;;;;;;;6.19;89.42;102406.13;1963880;73;21017;-61
2022/10/06 00:41:15;;;;;;;19.62;9.53;;;;;;;6.19;89.42;102403.51;1963987;73;21046;-60
2022/10/06 00:43:58;;;;;;;22.02;10.58;;;;;;;6.19;89.52;102405.26;1963968;73;21088;-60
2022/10/06 00:46:34;;;;;;;21.93;8.95;;;;;;;6.19;89.59;102404.81;1970265;72;21101;-60
2022/10/06 00:49:24;;;;;;;18.32;9.75;;;;;;;6.19;89.62;102402.20;1987105;72;21178;-61
2022/10/06 00:51:59;;;;;;;17.48;8.43;;;;;;;6.18;89.62;102401.78;1989439;72;21118;-62
2022/10/06 00:54:28;;;;;;;16.45;9.08;;;;;;;6.18;89.71;102397.85;1981936;72;21027;-63
2022/10/06 00:56:58;;;;;;;12.33;7.47;;;;;;;6.15;89.90;102396.52;1992456;72;21437;-62
2022/10/06 00:59:26;;;;;;;11.18;5.95;;;;;;;6.16;89.84;102407.84;1996326;71;21042;-62
2022/10/06 01:02:04;;;;;;;12.15;5.90;;;;;;;6.13;89.73;102407.41;1970715;72;21203;-62
2022/10/06 01:04:35;;;;;;;11.57;6.33;;;;;;;6.12;89.65;102417.45;1990388;72;21430;-63
2022/10/06 01:07:04;;;;;;;10.05;5.87;;;;;;;6.10;89.63;102412.61;1994051;71;21073;-63
2022/10/06 01:09:34;;;;;;;18.65;8.48;;;;;;;6.09;89.70;102412.19;1991640;72;21466;-63
2022/10/06 01:12:06;;;;;;;15.90;7.87;;;;;;;6.09;89.76;102413.94;1990476;72;21459;-64
2022/10/06 01:14:37;;;;;;;24.90;10.32;;;;;;;6.08;89.88;102418.70;1995147;72;21531;-62
2022/10/06 01:17:14;;;;;;;19.15;9.23;;;;;;;6.08;90.15;102415.65;1998003;72;20999;-62
2022/10/06 01:20:07;;;;;;;17.80;8.60;;;;;;;6.10;90.17;102411.30;1998023;72;21011;-62
2022/10/06 01:23:09;;;;;;;13.57;7.77;;;;;;;6.11;90.17;102416.98;1998484;72;21007;-62
2022/10/06 01:25:38;;;;;;;10.40;6.35;;;;;;;6.09;90.17;102414.80;1982564;72;21032;-63
2022/10/06 01:28:08;;;;;;;15.13;6.78;;;;;;;6.09;90.37;102409.56;1981986;72;21132;-63
2022/10/06 01:30:45;;;;;;;20.00;8.40;;;;;;;6.10;90.44;102413.91;1987837;72;21019;-62
2022/10/06 01:33:19;;;;;;;14.23;7.05;;;;;;;6.12;90.55;102412.63;1877121;76;21095;-64
2022/10/06 01:35:50;;;;;;;17.75;8.38;;;;;;;6.17;90.65;102418.32;1841665;76;21490;-65
2022/10/06 01:38:20;;;;;;;15.03;7.67;;;;;;;6.25;90.87;102417.50;1857131;76;21580;-65
2022/10/06 01:40:52;;;;;;;14.70;7.37;;;;;;;6.29;90.73;102417.95;1876269;75;21504;-65
2022/10/06 01:43:22;;;;;;;22.42;10.35;;;;;;;6.30;90.63;102415.34;1874065;76;21109;-64
2022/10/06 01:45:57;;;;;;;20.30;9.85;;;;;;;6.30;90.64;102414.48;1876694;76;21047;-64
2022/10/06 01:48:27;;;;;;;18.50;8.33;;;;;;;6.30;90.79;102419.71;1875470;75;21421;-70
2022/10/06 01:50:57;;;;;;;12.35;5.67;;;;;;;6.31;90.74;102420.17;1876770;76;21524;-67
2022/10/06 01:53:26;;;;;;;16.93;7.47;;;;;;;6.33;90.52;102417.13;1875137;76;21136;-75
2022/10/06 01:55:59;;;;;;;16.65;7.53;;;;;;;6.35;90.52;102416.70;1853789;76;21050;-68
2022/10/06 01:58:29;;;;;;;12.15;6.37;;;;;;;6.37;90.57;102414.52;1877502;76;21103;-68
2022/10/06 02:01:00;;;;;;;18.12;7.83;;;;;;;6.39;90.55;102415.84;1878107;76;21539;-69
2022/10/06 02:03:28;;;;;;;15.03;6.97;;;;;;;6.37;90.54;102413.20;1875581;76;21031;-71
2022/10/06 02:05:57;;;;;;;13.00;6.85;;;;;;;6.35;90.73;102410.16;1863577;76;21200;-66
2022/10/06 02:08:26;;;;;;;15.15;6.70;;;;;;;6.34;90.61;102415.83;1880416;76;21060;-70
2022/10/06 02:10:57;;;;;;;12.50;7.00;;;;;;;6.34;90.54;102417.14;1870353;75;21418;-70
2022/10/06 02:13:28;;;;;;;15.75;7.40;;;;;;;6.36;90.77;102406.66;1877435;76;21505;-74
2022/10/06 02:15:58;;;;;;;13.38;6.37;;;;;;;6.35;90.95;102411.02;1873640;76;21114;-68
2022/10/06 02:18:27;;;;;;;14.93;6.53;;;;;;;6.38;90.93;102408.84;1876659;76;21486;-67
2022/10/06 02:20:55;;;;;;;9.65;5.20;;;;;;;6.40;90.90;102409.75;1858378;76;21057;-66
2022/10/06 02:23:24;;;;;;;23.42;8.93;;;;;;;6.41;90.69;102407.56;1838926;78;21069;-75
2022/10/06 02:26:01;;;;;;;20.60;10.75;;;;;;;6.42;90.53;102406.70;1853188;76;21125;-67
2022/10/06 02:28:30;;;;;;;19.70;8.45;;;;;;;6.41;90.70;102402.33;1874628;74;21106;-67
2022/10/06 02:31:02;;;;;;;21.85;7.50;;;;;;;6.42;90.87;102403.19;1845481;78;21029;-67
2022/10/06 02:33:31;;;;;;;15.00;5.97;;;;;;;6.41;90.66;102406.25;1859324;76;21149;-70
2022/10/06 02:36:00;;;;;;;12.00;6.40;;;;;;;6.41;90.49;102410.17;1876978;76;21047;-69
2022/10/06 02:38:31;;;;;;;17.92;6.17;;;;;;;6.40;90.37;102414.98;1877134;75;21509;-70
2022/10/06 02:41:01;;;;;;;18.12;7.97;;;;;;;6.40;90.21;102414.98;1876814;76;21200;-67
2022/10/06 02:43:30;;;;;;;21.20;11.15;;;;;;;6.38;90.11;102406.22;1877033;76;21465;-69
2022/10/06 02:46:03;;;;;;;21.42;11.85;;;;;;;6.36;90.10;102405.34;1858967;76;21051;-68
2022/10/06 02:48:34;;;;;;;18.77;12.35;;;;;;;6.36;90.24;102405.34;1845566;78;21062;-71
2022/10/06 02:51:10;;;;;;;18.75;10.63;;;;;;;6.35;90.16;102411.46;1845386;77;21544;-74
2022/10/06 02:53:39;;;;;;;25.80;16.67;;;;;;;6.35;90.24;102410.16;1845474;78;21075;-76
2022/10/06 02:56:11;;;;;;;27.52;17.92;;;;;;;6.35;90.29;102410.16;1845430;77;21120;-69
2022/10/06 02:58:41;;;;;;;24.67;16.53;;;;;;;6.34;90.17;102411.01;1845593;78;21676;-69
2022/10/06 03:01:21;;;;;;;28.92;12.90;;;;;;;6.33;90.17;102410.14;1847274;76;21070;-70
2022/10/06 03:03:51;;;;;;;28.62;15.90;;;;;;;6.34;90.25;102416.23;1876454;76;21550;-68
2022/10/06 03:06:26;;;;;;;24.43;14.13;;;;;;;6.33;90.23;102410.14;1877318;76;21139;-77
2022/10/06 03:08:59;;;;;;;27.32;12.53;;;;;;;6.35;90.37;102407.54;1880089;76;21128;-76
2022/10/06 03:11:33;;;;;;;19.12;8.08;;;;;;;6.33;90.36;102407.52;1880569;76;21480;-73
2022/10/06 03:14:01;;;;;;;9.08;4.37;;;;;;;6.29;90.25;102408.80;1877225;75;21458;-71
2022/10/06 03:16:33;;;;;;;11.95;4.70;;;;;;;6.22;90.13;102410.96;1876863;76;21592;-72
2022/10/06 03:19:04;;;;;;;10.72;5.53;;;;;;;6.14;90.09;102411.78;1877094;76;21145;-71
2022/10/06 03:21:36;;;;;;;12.28;5.17;;;;;;;6.11;90.03;102413.50;1876554;76;21019;-71
2022/10/06 03:24:05;;;;;;;12.63;5.62;;;;;;;6.07;90.23;102420.45;1869104;76;21047;-70
2022/10/06 03:26:38;;;;;;;13.40;5.97;;;;;;;6.05;90.38;102419.58;1836257;77;21131;-71
2022/10/06 03:29:07;;;;;;;8.95;4.55;;;;;;;6.05;90.48;102416.95;1836333;77;21580;-69
2022/10/06 03:31:36;;;;;;;11.95;6.17;;;;;;;6.06;90.52;102420.00;1836276;78;21138;-72
2022/10/06 03:34:07;;;;;;;13.50;6.22;;;;;;;6.07;90.61;102418.25;1850670;77;21102;-68
2022/10/06 03:36:37;;;;;;;12.60;6.33;;;;;;;6.05;90.82;102413.03;1856916;76;21132;-68
2022/10/06 03:39:08;;;;;;;14.50;7.25;;;;;;;6.04;90.90;102423.04;1856824;77;21117;-72
2022/10/06 03:41:38;;;;;;;14.33;6.78;;;;;;;6.05;90.97;102419.58;1864836;76;21137;-67
2022/10/06 03:44:07;;;;;;;12.58;5.15;;;;;;;6.06;90.86;102414.77;1888882;76;21114;-69
2022/10/06 03:46:37;;;;;;;11.25;6.92;;;;;;;6.08;90.78;102416.09;1888794;76;21601;-68
2022/10/06 03:49:08;;;;;;;11.63;5.72;;;;;;;6.09;90.79;102413.48;1857850;76;21129;-68
2022/10/06 03:51:40;;;;;;;12.85;5.47;;;;;;;6.13;91.02;102406.09;1885300;76;21355;-69
2022/10/06 03:54:11;;;;;;;10.85;6.08;;;;;;;6.19;91.14;102412.66;1884944;76;21193;-68
2022/10/06 03:59:47;;;;;;;9.45;5.70;;;;;;;6.31;91.46;102404.47;1855979;77;21147;-68
2022/10/06 04:02:16;;;;;;;13.88;6.30;;;;;;;6.42;91.44;102404.50;1870967;76;21026;-71
2022/10/06 04:04:45;;;;;;;15.53;6.92;;;;;;;6.49;91.36;102408.48;1857527;76;21062;-68
2022/10/06 04:07:14;;;;;;;11.20;5.67;;;;;;;6.59;91.33;102407.22;1884046;76;21136;-71
2022/10/06 04:09:42;;;;;;;10.38;4.45;;;;;;;6.69;91.19;102403.75;1881549;76;21571;-74
2022/10/06 04:12:12;;;;;;;8.70;5.45;;;;;;;6.79;91.04;102410.78;1855120;77;21093;-65
2022/10/06 04:14:42;;;;;;;10.63;5.28;;;;;;;6.84;90.87;102403.83;1855820;77;21078;-72
2022/10/06 04:17:11;;;;;;;13.35;5.45;;;;;;;6.87;90.76;102403.81;1857453;77;21042;-71
2022/10/06 04:19:41;;;;;;;10.72;5.60;;;;;;;6.90;90.73;102402.52;1857274;77;21508;-73
2022/10/06 04:22:10;;;;;;;18.45;5.20;;;;;;;6.98;90.67;102402.54;1856048;76;21055;-72
2022/10/06 04:24:39;;;;;;;13.25;4.35;;;;;;;7.06;90.62;102402.11;1855486;77;21095;-70
2022/10/06 04:29:55;;;;;;;8.33;4.12;;;;;;;7.11;90.32;102405.62;1853677;77;21070;-66
2022/10/06 04:32:24;;;;;;;8.53;4.53;;;;;;;7.08;90.22;102409.56;1855480;77;21137;-75
2022/10/06 04:34:53;;;;;;;10.90;4.45;;;;;;;7.09;90.17;102414.36;1847273;76;21127;-73
2022/10/06 04:37:24;;;;;;;9.93;5.15;;;;;;;7.10;90.14;102410.44;1861836;76;21075;-72
2022/10/06 04:39:52;;;;;;;12.18;5.83;;;;;;;7.19;90.20;102412.17;1868368;76;21061;-75
2022/10/06 04:42:21;;;;;;;12.37;5.47;;;;;;;7.31;90.18;102406.96;1868414;76;20982;-70
2022/10/06 04:44:50;;;;;;;13.58;5.37;;;;;;;7.45;90.11;102413.95;1858902;76;21058;-69
2022/10/06 04:47:19;;;;;;;8.68;4.75;;;;;;;7.59;89.97;102413.53;1864196;76;21154;-64
2022/10/06 04:49:49;;;;;;;10.90;5.20;;;;;;;7.72;89.81;102408.72;1845327;78;21671;-65
2022/10/06 04:52:18;;;;;;;10.48;5.55;;;;;;;7.85;89.65;102412.66;1845277;76;21070;-65
2022/10/06 04:54:47;;;;;;;11.60;5.75;;;;;;;7.96;89.46;102408.27;1844373;76;21100;-65
2022/10/06 04:57:16;;;;;;;12.63;6.87;;;;;;;8.08;89.30;102406.94;1856859;76;21050;-63
2022/10/06 05:02:33;;;;;;;13.62;5.78;;;;;;;8.30;88.98;102407.77;1862157;76;21473;-63
2022/10/06 05:05:02;;;;;;;14.47;9.18;;;;;;;8.45;88.80;102410.81;1844384;76;21125;-64
2022/10/06 05:07:31;;;;;;;17.50;9.78;;;;;;;8.61;88.66;102410.73;1842535;78;21073;-64
2022/10/06 05:10:00;;;;;;;16.20;10.88;;;;;;;8.79;88.57;102411.97;1842884;78;21023;-63
2022/10/06 05:12:29;;;;;;;19.15;10.32;;;;;;;9.01;88.55;102409.24;1844910;78;21112;-63
2022/10/06 05:14:59;;;;;;;11.97;7.83;;;;;;;9.40;88.34;102414.66;1845129;78;21110;-65
2022/10/06 05:17:28;;;;;;;12.70;7.15;;;;;;;10.09;87.63;102410.99;1815134;79;21113;-63
2022/10/06 05:19:57;;;;;;;11.33;5.20;;;;;;;10.86;87.03;102400.91;1815185;79;21175;-63
2022/10/06 05:27:00;;;;;;;10.13;4.47;;;;;;;11.71;87.55;102408.38;1834847;78;21090;-64
2022/10/06 05:29:27;;;;;;;12.18;4.97;;;;;;;11.83;87.17;102406.86;1844956;78;21047;-64
2022/10/06 05:31:56;;;;;;;10.50;4.40;;;;;;;11.96;87.10;102404.45;1845423;78;21129;-64
2022/10/06 05:34:25;;;;;;;11.83;5.83;;;;;;;12.12;86.53;102405.50;1844226;76;21549;-64
2022/10/06 05:36:54;;;;;;;7.45;3.95;;;;;;;12.45;85.69;102403.97;1845045;78;21213;-64
2022/10/06 05:39:22;;;;;;;9.33;4.37;;;;;;;12.91;84.50;102404.73;1844526;78;21576;-64
2022/10/06 05:41:53;;;;;;;14.50;6.58;;;;;;;13.64;83.34;102403.94;1841854;78;21098;-64
2022/10/06 05:44:22;;;;;;;12.13;6.08;;;;;;;14.56;81.85;102398.77;1844688;78;21023;-64
2022/10/06 05:46:50;;;;;;;9.28;5.78;;;;;;;15.54;80.24;102400.63;1845497;78;21148;-64
2022/10/06 05:49:20;;;;;;;12.10;6.00;;;;;;;16.62;78.42;102400.36;1845268;78;21164;-64
2022/10/06 05:51:52;;;;;;;7.83;4.53;;;;;;;17.69;75.95;102403.65;1844815;77;21140;-65
2022/10/06 05:54:25;;;;;;;7.90;4.67;;;;;;;18.67;73.60;102407.28;1845046;77;21078;-65
2022/10/06 05:56:54;;;;;;;6.53;4.03;;;;;;;19.34;71.98;102404.14;1845283;78;21016;-65
2022/10/06 05:59:23;;;;;;;8.95;3.30;;;;;;;19.48;71.26;102402.51;1845262;78;21622;-64
2022/10/06 06:01:53;;;;;;;10.03;4.35;;;;;;;19.71;70.81;102395.60;1844003;77;21143;-65
2022/10/06 06:04:29;;;;;;;11.45;3.60;;;;;;;19.43;71.32;102410.36;1837834;78;21110;-65
2022/10/06 06:06:58;;;;;;;11.85;3.90;;;;;;;19.05;72.16;102407.31;1838982;78;21371;-64
2022/10/06 06:09:28;;;;;;;12.40;4.37;;;;;;;18.78;72.88;102408.59;1838860;77;21093;-64
2022/10/06 06:11:58;;;;;;;9.03;4.08;;;;;;;18.29;73.40;102409.04;1843417;78;21083;-64
2022/10/06 06:17:17;;;;;;;8.68;3.52;;;;;;;16.76;75.79;102414.44;1844407;77;21121;-64
2022/10/06 06:19:46;;;;;;;11.80;3.70;;;;;;;16.01;76.78;102416.30;1843894;78;21066;-64
2022/10/06 06:22:16;;;;;;;14.55;4.15;;;;;;;15.51;77.12;102417.98;1844122;78;21067;-64
2022/10/06 06:24:46;;;;;;;15.50;4.70;;;;;;;15.94;76.70;102411.26;1843974;78;21087;-64
2022/10/06 06:27:16;;;;;;;9.55;3.80;;;;;;;17.20;75.18;102422.51;1843996;78;21075;-63
2022/10/06 06:29:45;;;;;;;12.70;3.67;;;;;;;18.61;72.83;102417.36;1844056;78;21075;-63
2022/10/06 06:32:15;;;;;;;13.53;4.70;;;;;;;19.87;70.60;102415.29;1844012;78;21141;-63
2022/10/06 06:34:44;;;;;;;15.65;4.80;;;;;;;20.78;67.65;102416.66;1843958;76;21518;-63
2022/10/06 06:37:13;;;;;;;10.40;4.92;;;;;;;21.64;65.79;102422.96;1845467;78;21058;-62
2022/10/06 06:39:42;;;;;;;17.85;4.78;;;;;;;22.41;63.64;102413.41;1845363;78;21071;-62
2022/10/06 06:42:10;;;;;;;12.03;5.33;;;;;;;23.02;62.23;102413.52;1844369;78;21055;-62
2022/10/06 06:44:41;;;;;;;8.85;5.08;;;;;;;23.62;60.13;102415.41;1844753;76;21058;-63
2022/10/06 06:47:11;;;;;;;13.35;4.60;;;;;;;24.15;58.92;102412.22;1842871;77;21047;-62
2022/10/06 06:49:41;;;;;;;12.33;5.53;;;;;;;24.61;57.42;102407.61;1843950;78;21019;-62
2022/10/06 06:52:10;;;;;;;14.23;6.50;;;;;;;24.87;55.51;102411.59;1843962;78;21137;-63
2022/10/06 06:54:40;;;;;;;13.05;4.78;;;;;;;24.93;54.37;102407.08;1843737;78;21106;-63
2022/10/06 06:57:11;;;;;;;9.05;3.98;;;;;;;24.89;52.13;102410.98;1843355;78;21125;-63
2022/10/06 06:59:40;;;;;;;12.60;3.87;;;;;;;24.72;50.67;102405.98;1843888;78;21219;-62
2022/10/06 07:02:10;;;;;;;12.58;5.00;;;;;;;24.72;49.68;102410.03;1843812;78;21066;-62
2022/10/06 07:04:42;;;;;;;10.50;3.92;;;;;;;24.88;49.65;102407.94;1843829;76;21137;-62
2022/10/06 07:07:12;;;;;;;5.95;3.10;;;;;;;25.16;49.42;102409.42;1844010;78;21135;-62
2022/10/06 07:09:42;;;;;;;6.03;2.40;;;;;;;25.61;48.99;102406.08;1843888;78;21541;-63
2022/10/06 07:12:12;;;;;;;8.30;3.83;;;;;;;25.86;47.74;102412.27;1843789;78;21501;-62
2022/10/06 07:25:05;;;;;;;7.20;3.30;;;;;;;26.31;47.04;102402.91;1843305;78;21524;-62
2022/10/06 07:25:32;;;;;;;4.58;1.50;;;;;;;26.81;42.84;102400.67;1843885;78;21141;-63
2022/10/06 07:28:03;;;;;;;9.85;2.35;;;;;;;26.86;42.29;102407.06;1843432;78;21157;-63
2022/10/06 07:30:33;;;;;;;13.70;2.37;;;;;;;26.74;41.83;102389.53;1843410;78;21066;-64
2022/10/06 07:33:08;;;;;;;3.37;1.80;;;;;;;26.41;40.51;102387.67;1843567;78;21156;-63
2022/10/06 07:35:39;;;;;;;2.40;1.70;;;;;;;26.24;40.03;102392.23;1843866;76;21107;-63
2022/10/06 07:38:08;;;;;;;3.37;1.25;;;;;;;26.45;39.99;102381.06;1844019;78;21576;-63
2022/10/06 07:40:39;;;;;;;3.58;1.35;;;;;;;26.45;38.31;102382.41;1843786;77;21496;-63
2022/10/06 07:43:09;;;;;;;2.83;1.47;;;;;;;26.65;38.31;102379.95;1845059;78;21396;-64
2022/10/06 07:45:48;;;;;;;6.33;2.50;;;;;;;26.69;38.46;102382.28;1844352;78;21093;-63
2022/10/06 07:48:20;;;;;;;4.75;1.10;;;;;;;26.93;38.62;102376.70;1844694;78;21128;-62
2022/10/06 07:50:52;;;;;;;4.53;1.42;;;;;;;27.16;37.79;102372.55;1844631;78;21180;-63
2022/10/06 07:53:26;;;;;;;5.60;2.00;;;;;;;27.38;37.63;102368.92;1845455;76;21508;-62
2022/10/06 07:55:59;;;;;;;6.28;1.35;;;;;;;27.58;36.26;102362.31;1845211;77;21203;-62
2022/10/06 07:58:29;;;;;;;1.95;1.17;;;;;;;27.84;36.01;102365.45;1845544;77;21096;-62
2022/10/06 08:01:06;;;;;;;1.87;1.20;;;;;;;27.90;35.88;102360.88;1845408;78;21195;-62
2022/10/06 08:03:36;;;;;;;1.80;1.00;;;;;;;28.32;35.61;102359.42;1844100;78;21191;-62
2022/10/06 08:06:06;;;;;;;3.10;1.35;;;;;;;28.15;33.80;102361.44;1844441;78;21042;-62
2022/10/06 08:08:38;;;;;;;2.87;1.10;;;;;;;28.14;34.29;102359.71;1845529;78;21137;-63
2022/10/06 08:11:08;;;;;;;7.65;1.40;;;;;;;28.53;34.39;102353.95;1845588;78;21047;-63
2022/10/06 08:13:40;;;;;;;2.15;1.15;;;;;;;29.02;34.12;102352.67;1845325;78;21558;-63
2022/10/06 08:16:11;;;;;;;4.62;1.22;;;;;;;29.38;33.49;102344.81;1845384;78;21107;-63
2022/10/06 08:18:40;;;;;;;6.30;1.27;;;;;;;29.50;32.82;102354.52;1845420;78;21156;-63
2022/10/06 08:21:17;;;;;;;3.02;0.90;;;;;;;29.65;33.01;102346.27;1845415;78;21043;-63
2022/10/06 08:23:48;;;;;;;2.90;1.15;;;;;;;29.72;32.99;102345.70;1845029;78;21123;-63
2022/10/06 08:26:18;;;;;;;2.87;0.90;;;;;;;28.35;34.22;102348.33;1845554;78;21101;-62
2022/10/06 08:28:49;;;;;;;2.20;0.90;;;;;;;28.57;34.08;102347.75;1845418;78;21456;-62
2022/10/06 08:31:20;;;;;;;5.30;1.32;;;;;;;28.84;33.08;102343.02;1845377;78;21141;-62
2022/10/06 08:33:51;;;;;;;3.10;1.45;;;;;;;28.68;32.39;102348.98;1845235;78;21086;-62
2022/10/06 08:36:21;;;;;;;2.22;1.30;;;;;;;28.99;32.23;102352.44;1845399;76;21109;-62
2022/10/06 08:38:49;;;;;;;2.08;1.12;;;;;;;29.35;32.26;102347.84;1845402;78;21543;-63
2022/10/06 08:41:24;;;;;;;2.55;1.00;;;;;;;28.24;33.35;102346.58;1845512;78;21137;-63
2022/10/06 08:43:55;;;;;;;2.70;1.27;;;;;;;28.94;32.98;102348.44;1843621;78;21183;-63
2022/10/06 08:46:27;;;;;;;4.62;1.17;;;;;;;29.67;32.25;102346.63;1843944;78;21578;-62
2022/10/06 08:48:57;;;;;;;5.80;1.47;;;;;;;29.45;32.13;102351.38;1844063;78;21501;-62
2022/10/06 08:51:59;;;;;;;4.65;1.10;;;;;;;29.74;31.74;102350.50;1843930;78;21106;-62
2022/10/06 08:54:39;;;;;;;1.50;1.00;;;;;;;28.69;32.72;102353.42;1844320;76;21035;-62
2022/10/06 08:57:14;;;;;;;2.00;1.10;;;;;;;28.84;32.40;102351.16;1842692;78;21125;-63
2022/10/06 08:59:46;;;;;;;2.15;1.00;;;;;;;29.12;31.02;102345.88;1844001;76;21047;-63
2022/10/06 09:02:17;;;;;;;3.60;1.30;;;;;;;28.77;30.44;102342.72;1844146;78;21087;-63
2022/10/06 09:04:48;;;;;;;4.45;1.72;;;;;;;29.04;30.88;102338.47;1842427;77;21130;-62
2022/10/06 09:07:20;;;;;;;1.70;1.32;;;;;;;29.61;30.83;102334.00;1844079;78;21051;-62
2022/10/06 09:10:28;;;;;;;2.67;1.40;;;;;;;30.01;30.34;102345.13;1842404;77;21124;-62
2022/10/06 09:12:59;;;;;;;3.42;1.00;;;;;;;30.35;30.29;102338.27;1843826;78;21474;-63
2022/10/06 09:15:47;;;;;;;2.50;1.40;;;;;;;30.70;30.03;102334.75;1843736;77;21051;-62
2022/10/06 09:18:34;;;;;;;2.40;1.30;;;;;;;30.76;29.72;102331.40;1844000;78;21040;-63
2022/10/06 09:21:09;;;;;;;2.90;1.67;;;;;;;30.61;29.84;102335.67;1843838;77;21019;-63
2022/10/06 09:23:47;;;;;;;2.72;1.07;;;;;;;30.58;30.18;102331.89;1841968;78;21494;-62
2022/10/06 09:26:21;;;;;;;1.70;1.05;;;;;;;30.23;29.70;102325.37;1815284;79;21042;-62
2022/10/06 09:28:52;;;;;;;2.47;1.00;;;;;;;29.40;28.97;102331.96;1814330;79;21078;-62
2022/10/06 09:31:24;;;;;;;2.27;1.10;;;;;;;28.77;29.60;102329.67;1815266;79;21031;-62
2022/10/06 09:33:55;;;;;;;3.62;1.10;;;;;;;28.47;29.93;102326.03;1815112;79;21134;-62
2022/10/06 09:36:23;;;;;;;2.45;1.17;;;;;;;28.75;30.45;102325.74;1842664;78;21086;-62
2022/10/06 09:38:54;;;;;;;4.20;2.15;;;;;;;28.63;30.30;102329.59;1842339;76;21091;-62
2022/10/06 09:41:30;;;;;;;5.50;1.50;;;;;;;26.85;31.53;102333.72;1841914;78;21116;-63
2022/10/06 09:44:02;;;;;;;2.90;1.45;;;;;;;26.43;32.45;102324.09;1840559;78;21051;-62
2022/10/06 09:46:40;;;;;;;2.65;1.20;;;;;;;27.33;32.22;102319.30;1840530;78;21527;-63
2022/10/06 09:49:30;;;;;;;1.65;1.42;;;;;;;27.84;31.73;102309.97;1840334;78;21047;-63
2022/10/06 09:52:01;;;;;;;1.42;1.10;;;;;;;28.22;31.21;102307.06;1840364;78;21043;-63
2022/10/06 09:54:33;;;;;;;6.47;1.65;;;;;;;28.04;31.01;102306.38;1840270;78;21533;-63
2022/10/06 09:57:04;;;;;;;2.95;1.40;;;;;;;28.10;30.98;102307.17;1840315;77;21090;-62
2022/10/06 09:59:36;;;;;;;4.08;1.62;;;;;;;28.27;31.16;102302.94;1839649;78;21047;-62
2022/10/06 10:02:04;;;;;;;3.30;1.60;;;;;;;28.14;30.64;102300.98;1840314;78;21027;-63
2022/10/06 10:04:36;;;;;;;2.92;1.40;;;;;;;27.63;30.91;102295.98;1840553;77;21095;-63
2022/10/06 10:07:25;;;;;;;3.12;1.25;;;;;;;27.68;31.29;102300.47;1839516;78;21509;-63
2022/10/06 10:09:56;;;;;;;3.50;1.35;;;;;;;27.88;31.47;102293.81;1770874;78;21059;-62
2022/10/06 10:12:30;;;;;;;3.27;1.60;;;;;;;27.82;31.41;102287.59;1821904;78;21140;-62
2022/10/06 10:15:04;;;;;;;2.62;1.40;;;;;;;28.18;31.35;102290.23;1835227;78;21087;-62
2022/10/06 10:17:39;;;;;;;3.25;1.42;;;;;;;28.10;31.00;102286.86;1810987;79;21469;-62
2022/10/06 10:20:12;;;;;;;1.95;1.30;;;;;;;27.79;31.44;102285.16;1811150;79;21082;-62
2022/10/06 10:22:42;;;;;;;2.15;1.25;;;;;;;28.10;31.51;102281.95;1810147;78;21087;-62
2022/10/06 10:25:19;;;;;;;2.33;1.17;;;;;;;28.52;31.23;102284.98;1823318;77;21446;-62
2022/10/06 10:28:10;;;;;;;3.37;1.42;;;;;;;28.50;31.14;102280.55;1844881;77;21078;-63
2022/10/06 10:31:02;;;;;;;4.20;1.47;;;;;;;28.58;31.28;102280.38;1920618;74;21061;-62
2022/10/06 10:33:45;;;;;;;2.05;1.30;;;;;;;28.56;31.45;102285.09;1924606;73;21088;-62
2022/10/06 10:36:17;;;;;;;3.27;1.72;;;;;;;28.55;31.33;102284.72;1913887;73;21065;-62
2022/10/06 10:38:48;;;;;;;4.17;1.40;;;;;;;28.52;31.18;102272.80;1914744;74;21146;-62
2022/10/06 10:41:19;;;;;;;4.00;1.30;;;;;;;28.56;31.38;102267.48;1909728;75;21033;-62
2022/10/06 10:43:54;;;;;;;2.67;1.50;;;;;;;28.44;31.13;102264.87;1909749;75;21103;-63
2022/10/06 10:46:37;;;;;;;2.77;1.57;;;;;;;28.47;30.90;102272.70;1909444;74;21512;-66
2022/10/06 10:49:11;;;;;;;4.00;1.30;;;;;;;28.24;30.81;102276.66;1909277;75;21158;-63
2022/10/06 10:51:46;;;;;;;2.05;1.10;;;;;;;27.97;31.05;102265.95;1903629;74;21053;-66
2022/10/06 10:54:17;;;;;;;2.15;1.27;;;;;;;27.70;31.05;102256.58;1909536;75;21483;-65
2022/10/06 10:56:48;;;;;;;2.52;1.17;;;;;;;27.03;30.93;102265.09;1915214;74;21472;-65
2022/10/06 10:59:42;;;;;;;2.27;1.20;;;;;;;26.59;31.25;102264.62;1910989;74;21090;-69
2022/10/06 11:02:14;;;;;;;2.37;1.00;;;;;;;26.52;31.48;102259.39;1916761;74;21083;-71
2022/10/06 11:04:50;;;;;;;4.62;1.25;;;;;;;26.54;31.57;102260.12;1935938;74;21025;-67
2022/10/06 11:07:19;;;;;;;1.82;1.25;;;;;;;26.43;31.20;102257.45;1920880;74;21100;-64
2022/10/06 11:10:00;;;;;;;3.02;1.27;;;;;;;26.32;31.68;102260.16;1909621;75;21040;-64
2022/10/06 11:12:37;;;;;;;2.85;1.17;;;;;;;26.31;31.67;102257.95;1905429;75;21029;-63
2022/10/06 11:15:15;;;;;;;4.78;1.27;;;;;;;25.93;32.02;102262.42;1913726;74;21068;-63
2022/10/06 11:17:48;;;;;;;2.90;1.17;;;;;;;25.66;32.59;102258.23;1909448;75;21061;-64
2022/10/06 11:20:31;;;;;;;4.62;1.25;;;;;;;25.68;32.87;102260.31;1909605;75;21056;-61
2022/10/06 11:23:21;;;;;;;3.12;1.60;;;;;;;25.66;32.95;102260.94;1930952;74;21049;-62
2022/10/06 11:26:09;;;;;;;1.90;1.17;;;;;;;25.57;33.56;102250.87;1943369;74;21045;-62
2022/10/06 11:28:56;;;;;;;5.78;1.90;;;;;;;25.54;34.19;102260.55;1942836;73;21483;-62
2022/10/06 11:31:28;;;;;;;2.05;1.80;;;;;;;25.04;34.24;102256.23;1924969;73;21058;-62
2022/10/06 11:33:59;;;;;;;2.52;1.07;;;;;;;24.66;34.68;102253.78;1923618;74;21073;-62
2022/10/06 11:36:34;;;;;;;1.98;1.12;;;;;;;24.02;35.14;102247.24;1922287;74;21092;-63
2022/10/06 11:39:05;;;;;;;1.55;0.80;;;;;;;23.54;35.56;102257.31;1923595;74;21093;-62
2022/10/06 11:41:37;;;;;;;5.75;1.40;;;;;;;22.91;35.79;102260.27;1922076;74;21026;-62
2022/10/06 11:44:31;;;;;;;2.55;1.37;;;;;;;22.40;36.39;102249.34;1921380;74;21058;-61
2022/10/06 11:47:06;;;;;;;5.28;1.45;;;;;;;22.10;37.03;102259.73;1923587;74;21100;-63
2022/10/06 11:49:54;;;;;;;1.25;1.07;;;;;;;21.93;37.41;102260.31;1923102;74;21093;-64
2022/10/06 11:52:26;;;;;;;2.17;1.27;;;;;;;21.67;37.31;102268.66;1894199;74;21108;-71
2022/10/06 11:55:15;;;;;;;2.15;1.00;;;;;;;21.57;37.78;102260.30;1890350;76;21100;-68
2022/10/06 11:58:11;;;;;;;2.47;1.20;;;;;;;21.47;37.99;102253.80;1890317;75;21164;-69
2022/10/06 12:00:42;;;;;;;2.62;1.42;;;;;;;21.29;38.24;102264.26;1890426;74;21104;-69
2022/10/06 12:03:32;;;;;;;2.87;1.35;;;;;;;21.12;38.62;102259.43;1898214;74;21096;-70
2022/10/06 12:06:02;;;;;;;1.75;0.70;;;;;;;21.05;38.94;102259.41;1923500;74;21058;-71
2022/10/06 12:08:39;;;;;;;1.80;1.30;;;;;;;20.92;39.27;102258.41;1905600;74;21030;-70
2022/10/06 12:11:39;;;;;;;9.65;2.85;;;;;;;20.80;39.46;102252.83;1892701;74;21030;-66
2022/10/06 12:14:37;;;;;;;5.75;2.33;;;;;;;20.75;39.67;102256.25;1913229;74;21014;-68